»·PEaware :: DCM4157 KVNY-KSFO

DCM4157 :: KVNY-KSFO

FLIGHT INFORMATION

Flight Status: Arrived
Operator: Unknown
More flights by this operator :: More flights under this callsign
Pilot: Chris A. (85)
Aircraft: CESSNA 550 CITATION 2/S2/BRAVO
(C550)
More flights by this aircraft type
Origin: KVNY Van Nuys
United States
Destination: KSFO San Francisco Intl
United States
More flights between these airports :: More routes between these airports
Route: +CANOG2 AVE BSR BSR3
File this flight plan on PilotEdge
Remarks: PBN / B1O1 DOF / 180508 SUR / 260B CODE / A08346
Altitude:
(Current/Filed)
30,000ft
Speed:
(Current/Filed)
395kts
Departed: 07-May-18 06:24 PM
Arrived: 07-May-18 07:26 PM
Distance/Time
Traveled:
279nm/1:02
Distance/Time
To Go:
Arrived

Flight Plot

Page will automatically refresh every two minutes.

Flight plan parsing failed; only flown route is shown


Map Options




Map Legend


Flown Route
Filed Route
Departure Airport
Arrival Airport
Navaid (VOR, NDB)
Fix

Horizontal Profiles

Position Reports

Time Latitude Longitude Heading Altitude Ground
Speed
07-May-18 18:06 34.203446 -118.491481 356 805ft 0kts
07-May-18 18:07 34.203446 -118.491481 356 805ft 0kts
07-May-18 18:08 34.203446 -118.491481 356 805ft 0kts
07-May-18 18:09 34.203446 -118.491481 356 805ft 0kts
07-May-18 18:10 34.203446 -118.491481 356 805ft 0kts
07-May-18 18:11 34.203446 -118.491481 356 805ft 0kts
07-May-18 18:12 34.203446 -118.491481 356 805ft 0kts
07-May-18 18:13 34.203446 -118.491481 356 805ft 0kts
07-May-18 18:14 34.203446 -118.491481 356 805ft 0kts
07-May-18 18:15 34.203446 -118.491481 356 805ft 0kts
07-May-18 18:16 34.203446 -118.491481 356 805ft 0kts
07-May-18 18:17 34.203448 -118.491481 356 805ft 0kts
07-May-18 18:18 34.203451 -118.491481 356 805ft 0kts
07-May-18 18:19 34.204823 -118.491146 355 805ft 14kts
07-May-18 18:20 34.209005 -118.491553 355 805ft 14kts
07-May-18 18:21 34.212920 -118.491910 354 805ft 14kts
07-May-18 18:22 34.216807 -118.492329 355 805ft 14kts
07-May-18 18:23 34.218782 -118.491872 91 805ft 4kts
07-May-18 18:24 34.205475 -118.490046 174 1071ft 133kts
07-May-18 18:25 34.160544 -118.503660 221 2227ft 211kts
07-May-18 18:26 34.157220 -118.554411 341 4593ft 176kts
07-May-18 18:27 34.203176 -118.563933 350 7036ft 173kts
07-May-18 18:28 34.252823 -118.572839 350 9352ft 185kts
07-May-18 18:29 34.304161 -118.580898 350 11648ft 183kts
07-May-18 18:30 34.351428 -118.606240 332 13947ft 209kts
07-May-18 18:31 34.408965 -118.638896 333 16305ft 246kts
07-May-18 18:32 34.474664 -118.675781 333 18623ft 272kts
07-May-18 18:33 34.545269 -118.715443 332 20930ft 286kts
07-May-18 18:34 34.618234 -118.756500 332 23237ft 288kts
07-May-18 18:35 34.690219 -118.797077 331 25526ft 281kts
07-May-18 18:36 34.759181 -118.836021 331 27806ft 265kts
07-May-18 18:37 34.821312 -118.875518 321 30054ft 237kts
07-May-18 18:38 34.881897 -118.925240 322 30208ft 290kts
07-May-18 18:39 34.954585 -118.984900 322 30187ft 340kts
07-May-18 18:40 35.037244 -119.052874 322 30162ft 371kts
07-May-18 18:41 35.124699 -119.124979 322 30106ft 386kts
07-May-18 18:42 35.210565 -119.195962 322 30085ft 391kts
07-May-18 18:43 35.296976 -119.267587 322 30077ft 391kts
07-May-18 18:44 35.386998 -119.342409 322 30076ft 391kts
07-May-18 18:45 35.477328 -119.417695 322 30063ft 392kts
07-May-18 18:45 35.550032 -119.483391 306 30057ft 386kts
07-May-18 18:46 35.579263 -119.607572 282 30060ft 382kts
07-May-18 18:47 35.602743 -119.734974 281 30059ft 381kts
07-May-18 18:48 35.625866 -119.861987 281 30060ft 381kts
07-May-18 18:49 35.650359 -119.988585 288 30066ft 382kts
07-May-18 18:50 35.690255 -120.110062 290 30070ft 382kts
07-May-18 18:51 35.730033 -120.231275 290 30071ft 382kts
07-May-18 18:52 35.768652 -120.349418 290 30071ft 382kts
07-May-18 18:53 35.807463 -120.468619 290 30076ft 382kts
07-May-18 18:54 35.846721 -120.589688 290 30076ft 383kts
07-May-18 18:55 35.886274 -120.712165 289 30077ft 384kts
07-May-18 18:56 35.925610 -120.834481 289 30080ft 384kts
07-May-18 18:57 35.964877 -120.957092 289 30089ft 384kts
07-May-18 18:58 36.004178 -121.080324 288 30101ft 385kts
07-May-18 18:59 36.041457 -121.197695 288 30114ft 383kts
07-May-18 19:00 36.079973 -121.319397 288 29176ft 364kts
07-May-18 19:02 36.116173 -121.434361 288 27533ft 359kts
07-May-18 19:03 36.152456 -121.550032 289 25737ft 363kts
07-May-18 19:04 36.201455 -121.659053 316 23940ft 371kts
07-May-18 19:05 36.285429 -121.732218 322 22151ft 367kts
07-May-18 19:06 36.366582 -121.802695 322 20352ft 351kts
07-May-18 19:07 36.446296 -121.871451 327 18548ft 345kts
07-May-18 19:08 36.537748 -121.903750 344 16757ft 337kts
07-May-18 19:09 36.627129 -121.929962 345 14958ft 326kts
07-May-18 19:10 36.715230 -121.955800 345 13167ft 323kts
07-May-18 19:11 36.801797 -121.979593 348 12072ft 311kts
07-May-18 19:12 36.884558 -122.001034 348 12003ft 298kts
07-May-18 19:13 36.965426 -122.022196 347 11993ft 297kts
07-May-18 19:14 37.046269 -122.043408 347 11995ft 297kts
07-May-18 19:15 37.130490 -122.065552 347 10462ft 313kts
07-May-18 19:16 37.213324 -122.087383 347 9994ft 296kts
07-May-18 19:17 37.292799 -122.108380 347 9993ft 289kts
07-May-18 19:18 37.371700 -122.129272 347 8972ft 284kts
07-May-18 19:19 37.440822 -122.147605 347 7064ft 229kts
07-May-18 19:20 37.499810 -122.166052 343 5176ft 212kts
07-May-18 19:21 37.547539 -122.198279 310 5004ft 197kts
07-May-18 19:22 37.572818 -122.247402 295 2625ft 138kts
07-May-18 19:23 37.588258 -122.292454 291 1210ft 139kts
07-May-18 19:24 37.602628 -122.330920 292 519ft 111kts
07-May-18 19:25 37.616380 -122.363899 293 30ft 90kts
07-May-18 19:26 37.621974 -122.375910 27 16ft 6kts
07-May-18 19:27 37.623544 -122.377160 296 16ft 11kts
07-May-18 19:28 37.626025 -122.382987 350 16ft 11kts
07-May-18 19:29 37.628020 -122.383985 297 16ft 0kts
07-May-18 19:30 37.628021 -122.383986 297 16ft 0kts
07-May-18 19:31 37.628021 -122.383986 297 16ft 0kts
07-May-18 19:32 37.628021 -122.383986 297 16ft 0kts
07-May-18 19:33 37.628021 -122.383986 297 16ft 0kts
07-May-18 19:34 37.628021 -122.383986 297 16ft 0kts
07-May-18 19:35 37.628021 -122.383986 297 16ft 0kts
07-May-18 19:36 37.628021 -122.383986 297 16ft 0kts
07-May-18 19:37 37.628021 -122.383986 297 16ft 0kts
07-May-18 19:38 37.628021 -122.383986 297 16ft 0kts
07-May-18 19:39 37.628021 -122.383986 297 16ft 0kts
07-May-18 19:40 37.628021 -122.383986 297 16ft 0kts

Navigation Log

Ident Type
Flight plan parsing failed, navigation log unavailable